sensor_id;sensor_type;location;lat;lon;timestamp;P1;durP1;ratioP1;P2;durP2;ratioP2
18228;SDS011;9239;50.932;3.142;2023-09-30T00:00:00;11.75;;;6.47;;
18228;SDS011;9239;50.932;3.142;2023-09-30T00:02:30;7.45;;;5.00;;
18228;SDS011;9239;50.932;3.142;2023-09-30T00:04:57;9.98;;;5.03;;
18228;SDS011;9239;50.932;3.142;2023-09-30T00:07:24;10.98;;;5.90;;
18228;SDS011;9239;50.932;3.142;2023-09-30T00:09:53;11.27;;;6.15;;
18228;SDS011;9239;50.932;3.142;2023-09-30T00:12:21;10.80;;;6.35;;
18228;SDS011;9239;50.932;3.142;2023-09-30T00:14:48;10.88;;;5.93;;
18228;SDS011;9239;50.932;3.142;2023-09-30T00:17:15;11.30;;;5.75;;
18228;SDS011;9239;50.932;3.142;2023-09-30T00:19:42;6.82;;;5.63;;
18228;SDS011;9239;50.932;3.142;2023-09-30T00:22:09;10.00;;;5.43;;
18228;SDS011;9239;50.932;3.142;2023-09-30T00:24:37;9.18;;;5.55;;
18228;SDS011;9239;50.932;3.142;2023-09-30T00:27:05;8.40;;;6.15;;
18228;SDS011;9239;50.932;3.142;2023-09-30T00:29:32;8.05;;;5.47;;
18228;SDS011;9239;50.932;3.142;2023-09-30T00:32:00;8.65;;;5.57;;
18228;SDS011;9239;50.932;3.142;2023-09-30T00:34:27;8.23;;;5.85;;
18228;SDS011;9239;50.932;3.142;2023-09-30T00:36:55;11.07;;;5.78;;
18228;SDS011;9239;50.932;3.142;2023-09-30T00:39:26;7.80;;;5.80;;
18228;SDS011;9239;50.932;3.142;2023-09-30T00:41:55;13.68;;;7.05;;
18228;SDS011;9239;50.932;3.142;2023-09-30T00:44:25;11.25;;;6.00;;
18228;SDS011;9239;50.932;3.142;2023-09-30T00:46:52;9.95;;;5.43;;
18228;SDS011;9239;50.932;3.142;2023-09-30T00:49:21;8.90;;;6.07;;
18228;SDS011;9239;50.932;3.142;2023-09-30T00:51:49;9.38;;;5.85;;
18228;SDS011;9239;50.932;3.142;2023-09-30T00:54:16;17.13;;;9.07;;
18228;SDS011;9239;50.932;3.142;2023-09-30T00:56:44;8.38;;;5.85;;
18228;SDS011;9239;50.932;3.142;2023-09-30T00:59:12;11.23;;;6.30;;
18228;SDS011;9239;50.932;3.142;2023-09-30T01:01:41;8.48;;;6.30;;
18228;SDS011;9239;50.932;3.142;2023-09-30T01:04:10;10.73;;;6.22;;
18228;SDS011;9239;50.932;3.142;2023-09-30T01:06:37;12.98;;;6.15;;
18228;SDS011;9239;50.932;3.142;2023-09-30T01:09:03;9.55;;;5.93;;
18228;SDS011;9239;50.932;3.142;2023-09-30T01:11:30;9.55;;;5.72;;
18228;SDS011;9239;50.932;3.142;2023-09-30T01:13:58;11.23;;;5.78;;
18228;SDS011;9239;50.932;3.142;2023-09-30T01:16:24;10.77;;;5.53;;
18228;SDS011;9239;50.932;3.142;2023-09-30T01:18:53;8.68;;;5.70;;
18228;SDS011;9239;50.932;3.142;2023-09-30T01:21:20;10.00;;;5.63;;
18228;SDS011;9239;50.932;3.142;2023-09-30T01:23:49;9.65;;;5.85;;
18228;SDS011;9239;50.932;3.142;2023-09-30T01:26:16;8.98;;;5.53;;
18228;SDS011;9239;50.932;3.142;2023-09-30T01:28:43;10.77;;;5.57;;
18228;SDS011;9239;50.932;3.142;2023-09-30T01:31:13;7.63;;;5.35;;
18228;SDS011;9239;50.932;3.142;2023-09-30T01:33:40;9.93;;;5.95;;
18228;SDS011;9239;50.932;3.142;2023-09-30T01:36:07;6.72;;;5.22;;
18228;SDS011;9239;50.932;3.142;2023-09-30T01:38:34;9.50;;;5.68;;
18228;SDS011;9239;50.932;3.142;2023-09-30T01:41:03;10.25;;;5.57;;
18228;SDS011;9239;50.932;3.142;2023-09-30T01:43:30;6.28;;;4.90;;
18228;SDS011;9239;50.932;3.142;2023-09-30T01:45:57;8.38;;;5.82;;
18228;SDS011;9239;50.932;3.142;2023-09-30T01:48:24;8.15;;;5.32;;
18228;SDS011;9239;50.932;3.142;2023-09-30T01:50:51;12.18;;;5.93;;
18228;SDS011;9239;50.932;3.142;2023-09-30T01:53:18;12.20;;;5.20;;
18228;SDS011;9239;50.932;3.142;2023-09-30T01:55:45;7.90;;;5.43;;
18228;SDS011;9239;50.932;3.142;2023-09-30T01:58:14;9.38;;;5.13;;
18228;SDS011;9239;50.932;3.142;2023-09-30T02:00:41;11.30;;;5.80;;
18228;SDS011;9239;50.932;3.142;2023-09-30T02:03:08;8.10;;;4.88;;
18228;SDS011;9239;50.932;3.142;2023-09-30T02:05:35;9.75;;;5.15;;
18228;SDS011;9239;50.932;3.142;2023-09-30T02:08:03;6.68;;;4.65;;
18228;SDS011;9239;50.932;3.142;2023-09-30T02:10:31;10.48;;;5.47;;
18228;SDS011;9239;50.932;3.142;2023-09-30T02:12:58;10.00;;;6.45;;
18228;SDS011;9239;50.932;3.142;2023-09-30T02:15:27;10.43;;;5.30;;
18228;SDS011;9239;50.932;3.142;2023-09-30T02:17:54;6.93;;;4.95;;
18228;SDS011;9239;50.932;3.142;2023-09-30T02:20:21;9.00;;;5.60;;
18228;SDS011;9239;50.932;3.142;2023-09-30T02:22:50;9.00;;;5.32;;
18228;SDS011;9239;50.932;3.142;2023-09-30T02:25:19;9.07;;;5.20;;
18228;SDS011;9239;50.932;3.142;2023-09-30T02:27:47;8.77;;;5.35;;
18228;SDS011;9239;50.932;3.142;2023-09-30T02:30:15;9.23;;;5.25;;
18228;SDS011;9239;50.932;3.142;2023-09-30T02:32:44;9.77;;;5.43;;
18228;SDS011;9239;50.932;3.142;2023-09-30T02:35:12;8.18;;;5.40;;
18228;SDS011;9239;50.932;3.142;2023-09-30T02:37:40;9.95;;;4.63;;
18228;SDS011;9239;50.932;3.142;2023-09-30T02:40:07;8.05;;;4.97;;
18228;SDS011;9239;50.932;3.142;2023-09-30T02:42:36;9.80;;;4.90;;
18228;SDS011;9239;50.932;3.142;2023-09-30T02:45:03;9.93;;;5.22;;
18228;SDS011;9239;50.932;3.142;2023-09-30T02:47:31;7.78;;;5.15;;
18228;SDS011;9239;50.932;3.142;2023-09-30T02:50:00;9.40;;;4.95;;
18228;SDS011;9239;50.932;3.142;2023-09-30T02:52:26;10.63;;;5.32;;
18228;SDS011;9239;50.932;3.142;2023-09-30T02:54:54;7.38;;;5.30;;
18228;SDS011;9239;50.932;3.142;2023-09-30T02:57:22;7.25;;;4.90;;
18228;SDS011;9239;50.932;3.142;2023-09-30T02:59:49;7.85;;;4.97;;
18228;SDS011;9239;50.932;3.142;2023-09-30T03:02:18;12.27;;;6.07;;
18228;SDS011;9239;50.932;3.142;2023-09-30T03:04:46;12.77;;;5.72;;
18228;SDS011;9239;50.932;3.142;2023-09-30T03:07:16;8.75;;;4.63;;
18228;SDS011;9239;50.932;3.142;2023-09-30T03:09:44;12.13;;;4.97;;
18228;SDS011;9239;50.932;3.142;2023-09-30T03:12:12;9.60;;;5.32;;
18228;SDS011;9239;50.932;3.142;2023-09-30T03:14:39;14.70;;;5.75;;
18228;SDS011;9239;50.932;3.142;2023-09-30T03:17:07;11.98;;;5.47;;
18228;SDS011;9239;50.932;3.142;2023-09-30T03:19:37;6.45;;;4.85;;
18228;SDS011;9239;50.932;3.142;2023-09-30T03:22:04;9.95;;;5.15;;
18228;SDS011;9239;50.932;3.142;2023-09-30T03:24:37;11.27;;;5.32;;
18228;SDS011;9239;50.932;3.142;2023-09-30T03:27:05;6.57;;;4.70;;
18228;SDS011;9239;50.932;3.142;2023-09-30T03:29:33;9.18;;;4.93;;
18228;SDS011;9239;50.932;3.142;2023-09-30T03:32:03;7.30;;;4.50;;
18228;SDS011;9239;50.932;3.142;2023-09-30T03:34:30;8.85;;;4.93;;
18228;SDS011;9239;50.932;3.142;2023-09-30T03:36:57;9.00;;;5.47;;
18228;SDS011;9239;50.932;3.142;2023-09-30T03:39:24;7.13;;;4.75;;
18228;SDS011;9239;50.932;3.142;2023-09-30T03:41:53;10.38;;;5.35;;
18228;SDS011;9239;50.932;3.142;2023-09-30T03:44:21;8.85;;;5.65;;
18228;SDS011;9239;50.932;3.142;2023-09-30T03:46:50;7.97;;;5.32;;
18228;SDS011;9239;50.932;3.142;2023-09-30T03:49:18;9.63;;;5.22;;
18228;SDS011;9239;50.932;3.142;2023-09-30T03:51:46;12.57;;;5.47;;
18228;SDS011;9239;50.932;3.142;2023-09-30T03:54:15;6.97;;;5.00;;
18228;SDS011;9239;50.932;3.142;2023-09-30T03:56:43;10.50;;;5.27;;
18228;SDS011;9239;50.932;3.142;2023-09-30T03:59:13;10.67;;;5.37;;
18228;SDS011;9239;50.932;3.142;2023-09-30T04:01:41;8.87;;;5.53;;
18228;SDS011;9239;50.932;3.142;2023-09-30T04:04:09;12.70;;;5.40;;
18228;SDS011;9239;50.932;3.142;2023-09-30T04:06:37;9.67;;;5.97;;
18228;SDS011;9239;50.932;3.142;2023-09-30T04:09:04;14.77;;;5.93;;
18228;SDS011;9239;50.932;3.142;2023-09-30T04:11:36;10.93;;;5.70;;
18228;SDS011;9239;50.932;3.142;2023-09-30T04:14:03;10.43;;;5.47;;
18228;SDS011;9239;50.932;3.142;2023-09-30T04:16:33;10.83;;;6.63;;
18228;SDS011;9239;50.932;3.142;2023-09-30T04:19:00;10.53;;;5.93;;
18228;SDS011;9239;50.932;3.142;2023-09-30T04:21:27;11.23;;;5.27;;
18228;SDS011;9239;50.932;3.142;2023-09-30T04:23:59;13.43;;;6.00;;
18228;SDS011;9239;50.932;3.142;2023-09-30T04:26:26;10.50;;;5.30;;
18228;SDS011;9239;50.932;3.142;2023-09-30T04:28:53;11.07;;;5.20;;
18228;SDS011;9239;50.932;3.142;2023-09-30T04:31:20;12.03;;;5.13;;
18228;SDS011;9239;50.932;3.142;2023-09-30T04:33:50;12.67;;;5.90;;
18228;SDS011;9239;50.932;3.142;2023-09-30T04:36:17;11.23;;;5.73;;
18228;SDS011;9239;50.932;3.142;2023-09-30T04:38:45;12.30;;;5.93;;
18228;SDS011;9239;50.932;3.142;2023-09-30T04:41:12;11.40;;;5.83;;
18228;SDS011;9239;50.932;3.142;2023-09-30T04:43:40;12.13;;;6.50;;
18228;SDS011;9239;50.932;3.142;2023-09-30T04:46:08;12.87;;;5.80;;
18228;SDS011;9239;50.932;3.142;2023-09-30T04:48:37;9.43;;;6.07;;
18228;SDS011;9239;50.932;3.142;2023-09-30T04:51:07;11.80;;;6.03;;
18228;SDS011;9239;50.932;3.142;2023-09-30T04:53:37;12.17;;;6.33;;
18228;SDS011;9239;50.932;3.142;2023-09-30T04:56:04;12.83;;;6.77;;
18228;SDS011;9239;50.932;3.142;2023-09-30T04:58:32;13.47;;;6.67;;
18228;SDS011;9239;50.932;3.142;2023-09-30T05:00:59;9.53;;;6.10;;
18228;SDS011;9239;50.932;3.142;2023-09-30T05:03:26;18.27;;;7.50;;
18228;SDS011;9239;50.932;3.142;2023-09-30T05:05:53;10.97;;;6.43;;
18228;SDS011;9239;50.932;3.142;2023-09-30T05:08:22;10.23;;;6.10;;
18228;SDS011;9239;50.932;3.142;2023-09-30T05:10:49;12.20;;;5.67;;
18228;SDS011;9239;50.932;3.142;2023-09-30T05:13:17;11.97;;;5.70;;
18228;SDS011;9239;50.932;3.142;2023-09-30T05:15:43;14.73;;;6.37;;
18228;SDS011;9239;50.932;3.142;2023-09-30T05:18:11;16.30;;;6.63;;
18228;SDS011;9239;50.932;3.142;2023-09-30T05:20:38;12.00;;;6.27;;
18228;SDS011;9239;50.932;3.142;2023-09-30T05:23:06;11.43;;;5.67;;
18228;SDS011;9239;50.932;3.142;2023-09-30T05:25:34;9.50;;;5.77;;
18228;SDS011;9239;50.932;3.142;2023-09-30T05:28:02;13.60;;;6.53;;
18228;SDS011;9239;50.932;3.142;2023-09-30T05:30:31;12.40;;;6.57;;
18228;SDS011;9239;50.932;3.142;2023-09-30T05:32:58;10.03;;;5.97;;
18228;SDS011;9239;50.932;3.142;2023-09-30T05:35:25;10.43;;;6.07;;
18228;SDS011;9239;50.932;3.142;2023-09-30T05:37:53;9.73;;;5.83;;
18228;SDS011;9239;50.932;3.142;2023-09-30T05:40:21;9.67;;;5.93;;
18228;SDS011;9239;50.932;3.142;2023-09-30T05:42:51;12.43;;;5.60;;
18228;SDS011;9239;50.932;3.142;2023-09-30T05:45:19;10.07;;;5.57;;
18228;SDS011;9239;50.932;3.142;2023-09-30T05:47:46;11.20;;;5.97;;
18228;SDS011;9239;50.932;3.142;2023-09-30T05:50:13;13.60;;;5.85;;
18228;SDS011;9239;50.932;3.142;2023-09-30T05:52:40;9.63;;;6.70;;
18228;SDS011;9239;50.932;3.142;2023-09-30T05:55:08;14.83;;;6.90;;
18228;SDS011;9239;50.932;3.142;2023-09-30T05:57:35;13.60;;;6.13;;
18228;SDS011;9239;50.932;3.142;2023-09-30T06:00:05;15.10;;;5.90;;
18228;SDS011;9239;50.932;3.142;2023-09-30T06:02:46;11.73;;;6.50;;
18228;SDS011;9239;50.932;3.142;2023-09-30T06:05:13;13.63;;;7.67;;
18228;SDS011;9239;50.932;3.142;2023-09-30T06:07:43;11.13;;;7.30;;
18228;SDS011;9239;50.932;3.142;2023-09-30T06:10:11;13.93;;;7.53;;
18228;SDS011;9239;50.932;3.142;2023-09-30T06:12:43;16.20;;;8.07;;
18228;SDS011;9239;50.932;3.142;2023-09-30T06:15:12;22.67;;;8.50;;
18228;SDS011;9239;50.932;3.142;2023-09-30T06:17:40;10.65;;;6.28;;
18228;SDS011;9239;50.932;3.142;2023-09-30T06:20:08;14.10;;;6.73;;
18228;SDS011;9239;50.932;3.142;2023-09-30T06:22:41;19.20;;;8.67;;
18228;SDS011;9239;50.932;3.142;2023-09-30T06:25:10;13.87;;;7.13;;
18228;SDS011;9239;50.932;3.142;2023-09-30T06:27:41;17.80;;;7.63;;
18228;SDS011;9239;50.932;3.142;2023-09-30T06:30:08;15.93;;;7.20;;
18228;SDS011;9239;50.932;3.142;2023-09-30T06:32:38;14.53;;;8.27;;
18228;SDS011;9239;50.932;3.142;2023-09-30T06:35:06;20.20;;;8.27;;
18228;SDS011;9239;50.932;3.142;2023-09-30T06:37:35;15.23;;;8.52;;
18228;SDS011;9239;50.932;3.142;2023-09-30T06:40:03;15.90;;;8.50;;
18228;SDS011;9239;50.932;3.142;2023-09-30T06:42:32;19.45;;;10.80;;
18228;SDS011;9239;50.932;3.142;2023-09-30T06:45:00;17.07;;;8.80;;
18228;SDS011;9239;50.932;3.142;2023-09-30T06:47:30;16.87;;;9.57;;
18228;SDS011;9239;50.932;3.142;2023-09-30T06:50:00;17.03;;;9.70;;
18228;SDS011;9239;50.932;3.142;2023-09-30T06:52:32;14.00;;;9.50;;
18228;SDS011;9239;50.932;3.142;2023-09-30T06:55:00;13.30;;;8.37;;
18228;SDS011;9239;50.932;3.142;2023-09-30T06:57:29;18.10;;;8.10;;
18228;SDS011;9239;50.932;3.142;2023-09-30T06:59:57;16.57;;;8.07;;
18228;SDS011;9239;50.932;3.142;2023-09-30T07:02:24;10.90;;;8.02;;
18228;SDS011;9239;50.932;3.142;2023-09-30T07:04:51;10.43;;;8.13;;
18228;SDS011;9239;50.932;3.142;2023-09-30T07:07:20;10.73;;;7.47;;
18228;SDS011;9239;50.932;3.142;2023-09-30T07:09:47;12.27;;;8.03;;
18228;SDS011;9239;50.932;3.142;2023-09-30T07:12:14;16.67;;;9.80;;
18228;SDS011;9239;50.932;3.142;2023-09-30T07:14:41;15.77;;;10.03;;
18228;SDS011;9239;50.932;3.142;2023-09-30T07:17:08;15.70;;;10.03;;
18228;SDS011;9239;50.932;3.142;2023-09-30T07:19:36;23.80;;;11.93;;
18228;SDS011;9239;50.932;3.142;2023-09-30T07:22:03;23.13;;;12.47;;
18228;SDS011;9239;50.932;3.142;2023-09-30T07:24:31;19.10;;;12.20;;
18228;SDS011;9239;50.932;3.142;2023-09-30T07:26:58;23.73;;;11.03;;
18228;SDS011;9239;50.932;3.142;2023-09-30T07:29:25;21.20;;;11.15;;
18228;SDS011;9239;50.932;3.142;2023-09-30T07:31:52;18.47;;;10.77;;
18228;SDS011;9239;50.932;3.142;2023-09-30T07:34:19;17.00;;;11.05;;
18228;SDS011;9239;50.932;3.142;2023-09-30T07:36:46;21.90;;;11.45;;
18228;SDS011;9239;50.932;3.142;2023-09-30T07:39:13;15.65;;;10.25;;
18228;SDS011;9239;50.932;3.142;2023-09-30T07:41:45;22.98;;;11.23;;
18228;SDS011;9239;50.932;3.142;2023-09-30T07:44:12;18.60;;;11.48;;
18228;SDS011;9239;50.932;3.142;2023-09-30T07:46:39;17.27;;;9.88;;
18228;SDS011;9239;50.932;3.142;2023-09-30T07:49:07;15.55;;;10.57;;
18228;SDS011;9239;50.932;3.142;2023-09-30T07:51:35;15.13;;;9.32;;
18228;SDS011;9239;50.932;3.142;2023-09-30T07:54:04;16.45;;;10.65;;
18228;SDS011;9239;50.932;3.142;2023-09-30T07:56:32;13.57;;;9.93;;
18228;SDS011;9239;50.932;3.142;2023-09-30T07:59:00;16.25;;;9.75;;
18228;SDS011;9239;50.932;3.142;2023-09-30T08:01:27;15.23;;;8.68;;
18228;SDS011;9239;50.932;3.142;2023-09-30T08:03:55;15.40;;;8.73;;
18228;SDS011;9239;50.932;3.142;2023-09-30T08:06:22;15.32;;;8.60;;
18228;SDS011;9239;50.932;3.142;2023-09-30T08:08:49;13.55;;;8.23;;
18228;SDS011;9239;50.932;3.142;2023-09-30T08:11:17;16.25;;;9.18;;
18228;SDS011;9239;50.932;3.142;2023-09-30T08:13:45;19.58;;;9.10;;
18228;SDS011;9239;50.932;3.142;2023-09-30T08:16:14;16.30;;;8.82;;
18228;SDS011;9239;50.932;3.142;2023-09-30T08:18:41;16.48;;;8.90;;
18228;SDS011;9239;50.932;3.142;2023-09-30T08:21:08;14.38;;;8.55;;
18228;SDS011;9239;50.932;3.142;2023-09-30T08:23:36;12.43;;;9.27;;
18228;SDS011;9239;50.932;3.142;2023-09-30T08:26:04;11.82;;;8.32;;
18228;SDS011;9239;50.932;3.142;2023-09-30T08:28:31;15.27;;;9.40;;
18228;SDS011;9239;50.932;3.142;2023-09-30T08:31:01;16.45;;;8.35;;
18228;SDS011;9239;50.932;3.142;2023-09-30T08:33:31;15.32;;;9.90;;
18228;SDS011;9239;50.932;3.142;2023-09-30T08:36:01;14.25;;;7.43;;
18228;SDS011;9239;50.932;3.142;2023-09-30T08:38:32;15.30;;;7.25;;
18228;SDS011;9239;50.932;3.142;2023-09-30T08:41:00;13.70;;;8.52;;
18228;SDS011;9239;50.932;3.142;2023-09-30T08:43:28;10.27;;;6.78;;
18228;SDS011;9239;50.932;3.142;2023-09-30T08:45:57;13.30;;;7.82;;
18228;SDS011;9239;50.932;3.142;2023-09-30T08:48:26;14.43;;;7.70;;
18228;SDS011;9239;50.932;3.142;2023-09-30T08:50:55;15.77;;;8.77;;
18228;SDS011;9239;50.932;3.142;2023-09-30T08:53:22;14.40;;;8.20;;
18228;SDS011;9239;50.932;3.142;2023-09-30T08:55:51;13.88;;;7.63;;
18228;SDS011;9239;50.932;3.142;2023-09-30T08:58:20;18.73;;;7.97;;
18228;SDS011;9239;50.932;3.142;2023-09-30T09:00:50;14.30;;;7.32;;
18228;SDS011;9239;50.932;3.142;2023-09-30T09:03:18;10.02;;;6.70;;
18228;SDS011;9239;50.932;3.142;2023-09-30T09:05:46;12.27;;;7.30;;
18228;SDS011;9239;50.932;3.142;2023-09-30T09:08:14;13.35;;;7.78;;
18228;SDS011;9239;50.932;3.142;2023-09-30T09:13:44;13.07;;;7.18;;
18228;SDS011;9239;50.932;3.142;2023-09-30T09:16:15;10.63;;;6.50;;
18228;SDS011;9239;50.932;3.142;2023-09-30T09:18:44;10.68;;;6.65;;
18228;SDS011;9239;50.932;3.142;2023-09-30T09:21:12;13.18;;;7.38;;
18228;SDS011;9239;50.932;3.142;2023-09-30T09:23:43;9.00;;;6.88;;
18228;SDS011;9239;50.932;3.142;2023-09-30T09:26:11;12.48;;;7.35;;
18228;SDS011;9239;50.932;3.142;2023-09-30T09:28:39;13.73;;;7.28;;
18228;SDS011;9239;50.932;3.142;2023-09-30T09:31:20;13.25;;;8.25;;
18228;SDS011;9239;50.932;3.142;2023-09-30T09:33:51;10.13;;;6.30;;
18228;SDS011;9239;50.932;3.142;2023-09-30T09:36:18;14.25;;;6.88;;
18228;SDS011;9239;50.932;3.142;2023-09-30T09:38:48;15.15;;;7.22;;
18228;SDS011;9239;50.932;3.142;2023-09-30T09:41:18;16.52;;;7.18;;
18228;SDS011;9239;50.932;3.142;2023-09-30T09:43:47;17.90;;;11.20;;
18228;SDS011;9239;50.932;3.142;2023-09-30T09:46:16;12.68;;;7.22;;
18228;SDS011;9239;50.932;3.142;2023-09-30T09:48:44;9.80;;;6.38;;
18228;SDS011;9239;50.932;3.142;2023-09-30T09:51:12;23.08;;;8.07;;
18228;SDS011;9239;50.932;3.142;2023-09-30T09:53:40;12.13;;;6.55;;
18228;SDS011;9239;50.932;3.142;2023-09-30T09:56:10;15.15;;;7.47;;
18228;SDS011;9239;50.932;3.142;2023-09-30T09:58:39;8.60;;;6.72;;
18228;SDS011;9239;50.932;3.142;2023-09-30T10:01:08;13.77;;;7.22;;
18228;SDS011;9239;50.932;3.142;2023-09-30T10:03:37;10.70;;;5.88;;
18228;SDS011;9239;50.932;3.142;2023-09-30T10:06:05;12.82;;;7.05;;
18228;SDS011;9239;50.932;3.142;2023-09-30T10:08:36;16.48;;;7.38;;
18228;SDS011;9239;50.932;3.142;2023-09-30T10:11:07;13.63;;;6.68;;
18228;SDS011;9239;50.932;3.142;2023-09-30T10:13:52;12.45;;;7.13;;
18228;SDS011;9239;50.932;3.142;2023-09-30T10:19:16;13.98;;;8.00;;
18228;SDS011;9239;50.932;3.142;2023-09-30T10:25:00;9.77;;;7.30;;
18228;SDS011;9239;50.932;3.142;2023-09-30T10:27:49;16.48;;;7.60;;
18228;SDS011;9239;50.932;3.142;2023-09-30T10:30:16;11.48;;;7.05;;
18228;SDS011;9239;50.932;3.142;2023-09-30T10:35:42;12.43;;;6.15;;
18228;SDS011;9239;50.932;3.142;2023-09-30T10:41:09;9.93;;;5.10;;
18228;SDS011;9239;50.932;3.142;2023-09-30T10:43:39;9.05;;;4.63;;
18228;SDS011;9239;50.932;3.142;2023-09-30T10:48:56;8.02;;;4.70;;
18228;SDS011;9239;50.932;3.142;2023-09-30T10:51:41;10.50;;;4.05;;
18228;SDS011;9239;50.932;3.142;2023-09-30T10:54:09;8.02;;;3.90;;
18228;SDS011;9239;50.932;3.142;2023-09-30T10:56:38;7.78;;;4.22;;
18228;SDS011;9239;50.932;3.142;2023-09-30T10:59:06;10.45;;;4.50;;
18228;SDS011;9239;50.932;3.142;2023-09-30T11:01:34;9.52;;;4.45;;
18228;SDS011;9239;50.932;3.142;2023-09-30T11:04:02;10.10;;;3.28;;
18228;SDS011;9239;50.932;3.142;2023-09-30T11:06:31;9.15;;;3.00;;
18228;SDS011;9239;50.932;3.142;2023-09-30T11:08:59;6.63;;;2.33;;
18228;SDS011;9239;50.932;3.142;2023-09-30T11:11:38;11.63;;;3.15;;
18228;SDS011;9239;50.932;3.142;2023-09-30T11:14:19;8.60;;;3.20;;
18228;SDS011;9239;50.932;3.142;2023-09-30T11:16:47;8.25;;;3.28;;
18228;SDS011;9239;50.932;3.142;2023-09-30T11:19:15;7.32;;;3.10;;
18228;SDS011;9239;50.932;3.142;2023-09-30T11:21:42;7.38;;;3.80;;
18228;SDS011;9239;50.932;3.142;2023-09-30T11:24:10;5.90;;;2.40;;
18228;SDS011;9239;50.932;3.142;2023-09-30T11:26:37;5.70;;;2.47;;
18228;SDS011;9239;50.932;3.142;2023-09-30T11:29:06;7.07;;;2.42;;
18228;SDS011;9239;50.932;3.142;2023-09-30T11:31:38;4.60;;;2.60;;
18228;SDS011;9239;50.932;3.142;2023-09-30T11:34:05;6.30;;;3.10;;
18228;SDS011;9239;50.932;3.142;2023-09-30T11:36:33;6.70;;;2.60;;
18228;SDS011;9239;50.932;3.142;2023-09-30T11:39:01;8.70;;;2.42;;
18228;SDS011;9239;50.932;3.142;2023-09-30T11:41:32;10.10;;;2.80;;
18228;SDS011;9239;50.932;3.142;2023-09-30T11:44:00;8.18;;;2.47;;
18228;SDS011;9239;50.932;3.142;2023-09-30T11:46:32;7.80;;;2.60;;
18228;SDS011;9239;50.932;3.142;2023-09-30T11:49:23;4.05;;;2.10;;
18228;SDS011;9239;50.932;3.142;2023-09-30T11:51:52;7.70;;;3.25;;
18228;SDS011;9239;50.932;3.142;2023-09-30T11:54:19;4.72;;;2.10;;
18228;SDS011;9239;50.932;3.142;2023-09-30T11:56:47;6.20;;;3.00;;
18228;SDS011;9239;50.932;3.142;2023-09-30T11:59:15;6.57;;;3.17;;
18228;SDS011;9239;50.932;3.142;2023-09-30T12:01:44;5.93;;;2.25;;
18228;SDS011;9239;50.932;3.142;2023-09-30T12:04:14;5.28;;;2.05;;
18228;SDS011;9239;50.932;3.142;2023-09-30T12:06:42;12.73;;;3.70;;
18228;SDS011;9239;50.932;3.142;2023-09-30T12:09:09;4.63;;;2.60;;
18228;SDS011;9239;50.932;3.142;2023-09-30T12:11:39;7.47;;;2.47;;
18228;SDS011;9239;50.932;3.142;2023-09-30T12:14:09;7.03;;;2.10;;
18228;SDS011;9239;50.932;3.142;2023-09-30T12:16:37;6.45;;;2.60;;
18228;SDS011;9239;50.932;3.142;2023-09-30T12:19:06;6.45;;;2.20;;
18228;SDS011;9239;50.932;3.142;2023-09-30T12:21:33;7.22;;;2.38;;
18228;SDS011;9239;50.932;3.142;2023-09-30T12:24:02;7.43;;;2.63;;
18228;SDS011;9239;50.932;3.142;2023-09-30T12:26:29;5.07;;;2.17;;
18228;SDS011;9239;50.932;3.142;2023-09-30T12:28:56;6.07;;;2.17;;
18228;SDS011;9239;50.932;3.142;2023-09-30T12:31:24;6.78;;;2.22;;
18228;SDS011;9239;50.932;3.142;2023-09-30T12:33:51;7.10;;;2.17;;
18228;SDS011;9239;50.932;3.142;2023-09-30T12:36:21;8.05;;;2.58;;
18228;SDS011;9239;50.932;3.142;2023-09-30T12:38:49;7.47;;;2.38;;
18228;SDS011;9239;50.932;3.142;2023-09-30T12:41:16;7.18;;;2.85;;
18228;SDS011;9239;50.932;3.142;2023-09-30T12:43:44;3.63;;;2.05;;
18228;SDS011;9239;50.932;3.142;2023-09-30T12:46:11;8.02;;;2.13;;
18228;SDS011;9239;50.932;3.142;2023-09-30T12:48:39;6.18;;;2.10;;
18228;SDS011;9239;50.932;3.142;2023-09-30T12:51:06;4.38;;;2.30;;
18228;SDS011;9239;50.932;3.142;2023-09-30T12:53:35;6.38;;;2.58;;
18228;SDS011;9239;50.932;3.142;2023-09-30T12:56:02;5.68;;;2.65;;
18228;SDS011;9239;50.932;3.142;2023-09-30T12:58:29;4.10;;;2.10;;
18228;SDS011;9239;50.932;3.142;2023-09-30T13:00:58;6.50;;;2.05;;
18228;SDS011;9239;50.932;3.142;2023-09-30T13:03:25;8.30;;;2.83;;
18228;SDS011;9239;50.932;3.142;2023-09-30T13:05:52;4.55;;;3.10;;
18228;SDS011;9239;50.932;3.142;2023-09-30T13:08:19;6.50;;;2.55;;
18228;SDS011;9239;50.932;3.142;2023-09-30T13:10:47;7.15;;;2.10;;
18228;SDS011;9239;50.932;3.142;2023-09-30T13:13:15;6.75;;;2.42;;
18228;SDS011;9239;50.932;3.142;2023-09-30T13:15:43;7.32;;;2.08;;
18228;SDS011;9239;50.932;3.142;2023-09-30T13:18:10;8.32;;;2.65;;
18228;SDS011;9239;50.932;3.142;2023-09-30T13:20:37;6.55;;;2.30;;
18228;SDS011;9239;50.932;3.142;2023-09-30T13:23:04;5.78;;;2.22;;
18228;SDS011;9239;50.932;3.142;2023-09-30T13:25:31;6.65;;;2.20;;
18228;SDS011;9239;50.932;3.142;2023-09-30T13:28:00;5.50;;;2.45;;
18228;SDS011;9239;50.932;3.142;2023-09-30T13:30:28;5.60;;;2.08;;
18228;SDS011;9239;50.932;3.142;2023-09-30T13:32:55;9.82;;;2.42;;
18228;SDS011;9239;50.932;3.142;2023-09-30T13:35:22;5.25;;;2.33;;
18228;SDS011;9239;50.932;3.142;2023-09-30T13:37:50;6.38;;;2.58;;
18228;SDS011;9239;50.932;3.142;2023-09-30T13:40:17;6.25;;;2.28;;
18228;SDS011;9239;50.932;3.142;2023-09-30T13:42:44;6.30;;;2.38;;
18228;SDS011;9239;50.932;3.142;2023-09-30T13:45:13;7.13;;;2.40;;
18228;SDS011;9239;50.932;3.142;2023-09-30T13:47:42;5.35;;;2.40;;
18228;SDS011;9239;50.932;3.142;2023-09-30T13:50:09;5.68;;;2.47;;
18228;SDS011;9239;50.932;3.142;2023-09-30T13:52:36;6.88;;;2.67;;
18228;SDS011;9239;50.932;3.142;2023-09-30T13:55:04;5.05;;;2.08;;
18228;SDS011;9239;50.932;3.142;2023-09-30T13:57:31;7.10;;;2.95;;
18228;SDS011;9239;50.932;3.142;2023-09-30T13:59:58;6.72;;;2.88;;
18228;SDS011;9239;50.932;3.142;2023-09-30T14:02:26;6.45;;;2.60;;
18228;SDS011;9239;50.932;3.142;2023-09-30T14:04:53;8.18;;;2.20;;
18228;SDS011;9239;50.932;3.142;2023-09-30T14:07:21;5.18;;;2.50;;
18228;SDS011;9239;50.932;3.142;2023-09-30T14:09:48;6.15;;;2.35;;
18228;SDS011;9239;50.932;3.142;2023-09-30T14:12:17;6.07;;;2.08;;
18228;SDS011;9239;50.932;3.142;2023-09-30T14:14:44;6.78;;;2.53;;
18228;SDS011;9239;50.932;3.142;2023-09-30T14:17:11;6.30;;;2.70;;
18228;SDS011;9239;50.932;3.142;2023-09-30T14:19:41;6.35;;;2.30;;
18228;SDS011;9239;50.932;3.142;2023-09-30T14:22:08;8.63;;;3.38;;
18228;SDS011;9239;50.932;3.142;2023-09-30T14:24:35;8.35;;;2.83;;
18228;SDS011;9239;50.932;3.142;2023-09-30T14:27:02;4.70;;;2.20;;
18228;SDS011;9239;50.932;3.142;2023-09-30T14:29:30;5.63;;;2.65;;
18228;SDS011;9239;50.932;3.142;2023-09-30T14:31:57;8.40;;;2.60;;
18228;SDS011;9239;50.932;3.142;2023-09-30T14:34:24;6.72;;;2.92;;
18228;SDS011;9239;50.932;3.142;2023-09-30T14:36:53;9.13;;;3.20;;
18228;SDS011;9239;50.932;3.142;2023-09-30T14:39:20;10.55;;;2.90;;
18228;SDS011;9239;50.932;3.142;2023-09-30T14:41:48;7.00;;;2.20;;
18228;SDS011;9239;50.932;3.142;2023-09-30T14:44:15;6.57;;;2.80;;
18228;SDS011;9239;50.932;3.142;2023-09-30T14:46:42;5.50;;;2.55;;
18228;SDS011;9239;50.932;3.142;2023-09-30T14:49:09;6.40;;;2.38;;
18228;SDS011;9239;50.932;3.142;2023-09-30T14:51:36;5.53;;;2.47;;
18228;SDS011;9239;50.932;3.142;2023-09-30T14:54:05;8.75;;;2.83;;
18228;SDS011;9239;50.932;3.142;2023-09-30T14:56:33;4.93;;;2.60;;
18228;SDS011;9239;50.932;3.142;2023-09-30T14:58:59;7.38;;;2.67;;
18228;SDS011;9239;50.932;3.142;2023-09-30T15:01:27;7.88;;;3.40;;
18228;SDS011;9239;50.932;3.142;2023-09-30T15:03:55;8.05;;;3.30;;
18228;SDS011;9239;50.932;3.142;2023-09-30T15:06:24;4.38;;;1.83;;
18228;SDS011;9239;50.932;3.142;2023-09-30T15:08:51;7.50;;;2.60;;
18228;SDS011;9239;50.932;3.142;2023-09-30T15:11:19;9.40;;;3.10;;
18228;SDS011;9239;50.932;3.142;2023-09-30T15:13:48;6.95;;;2.28;;
18228;SDS011;9239;50.932;3.142;2023-09-30T15:16:16;7.25;;;2.85;;